Time;durP1;ratioP1;P1;durP2;ratioP2;P2;SDS_P1;SDS_P2;PMS_P1;PMS_P2;Temp;Humidity;BMP_temperature;BMP_pressure;BME280_temperature;BME280_humidity;BME280_pressure;Samples;Min_cycle;Max_cycle;Signal;HPM_P1;HPM_P2
2021/08/11 00:02:14;0.00;0.00;0.62;0.00;0.00;0.62;3.10;2.80;;;25.80;37.30;;;;;;2253682;61;20392;-49
2021/08/11 00:04:58;0.00;0.00;0.62;0.00;0.00;0.62;2.80;2.30;;;25.80;37.30;;;;;;2253480;61;20372;-49
2021/08/11 00:07:43;0.00;0.00;0.62;0.00;0.00;0.62;3.13;2.80;;;25.80;37.30;;;;;;2253936;61;20613;-50
2021/08/11 00:10:27;0.00;0.00;0.62;0.00;0.00;0.62;3.37;3.03;;;25.90;37.40;;;;;;2253278;61;20427;-49
2021/08/11 00:13:12;0.00;0.00;0.62;0.00;0.00;0.62;3.10;2.67;;;25.90;37.30;;;;;;2254026;61;20383;-50
2021/08/11 00:15:56;0.00;0.00;0.62;0.00;0.00;0.62;12.37;3.47;;;25.90;37.30;;;;;;2253886;61;20368;-53
2021/08/11 00:18:42;0.00;0.00;0.62;0.00;0.00;0.62;4.13;3.70;;;25.90;37.40;;;;;;2253162;61;20359;-46
2021/08/11 00:21:27;0.00;0.00;0.62;0.00;0.00;0.62;3.47;2.97;;;25.90;37.40;;;;;;2253963;61;20503;-50
2021/08/11 00:24:11;0.00;0.00;0.62;0.00;0.00;0.62;4.20;3.07;;;25.90;37.30;;;;;;2253580;61;20363;-46
2021/08/11 00:26:56;0.00;0.00;0.62;0.00;0.00;0.62;4.00;3.43;;;25.90;37.30;;;;;;2253605;61;20641;-50
2021/08/11 00:29:40;0.00;0.00;0.62;0.00;0.00;0.62;5.00;3.63;;;25.90;37.20;;;;;;2253902;61;20362;-51
2021/08/11 00:32:25;0.00;0.00;0.62;0.00;0.00;0.62;6.37;3.90;;;25.90;37.20;;;;;;2253302;61;20359;-50
2021/08/11 00:35:12;0.00;0.00;0.62;0.00;0.00;0.62;3.83;3.10;;;25.90;37.20;;;;;;2253994;61;20368;-49
2021/08/11 00:37:56;0.00;0.00;0.62;0.00;0.00;0.62;6.50;3.03;;;25.80;37.10;;;;;;2256272;61;20360;-50
2021/08/11 00:40:43;0.00;0.00;0.62;0.00;0.00;0.62;4.13;3.43;;;25.80;37.10;;;;;;2255552;61;20379;-51
2021/08/11 00:43:28;0.00;0.00;0.62;0.00;0.00;0.62;4.87;3.07;;;25.80;37.20;;;;;;2256273;61;20433;-49
2021/08/11 00:46:13;0.00;0.00;0.62;0.00;0.00;0.62;5.17;3.00;;;25.80;37.10;;;;;;2256077;61;20391;-49
2021/08/11 00:48:58;0.00;0.00;0.62;0.00;0.00;0.62;7.30;3.30;;;25.80;37.20;;;;;;2255912;61;20736;-49
2021/08/11 00:51:47;0.00;0.00;0.62;0.00;0.00;0.62;4.80;3.17;;;25.80;37.20;;;;;;2256236;61;20613;-50
2021/08/11 00:54:34;0.00;0.00;0.62;0.00;0.00;0.62;3.87;3.47;;;25.80;37.20;;;;;;2252828;61;20368;-52
2021/08/11 00:57:20;0.00;0.00;0.62;0.00;0.00;0.62;4.93;3.50;;;25.80;37.20;;;;;;2256313;61;20392;-48
2021/08/11 01:00:07;0.00;0.00;0.62;0.00;0.00;0.62;3.60;3.23;;;25.70;37.10;;;;;;2256056;61;20384;-50
2021/08/11 01:02:53;0.00;0.00;0.62;0.00;0.00;0.62;3.50;2.90;;;25.80;37.20;;;;;;2255529;61;20463;-51
2021/08/11 01:05:39;0.00;0.00;0.62;0.00;0.00;0.62;3.87;2.90;;;25.70;37.20;;;;;;2256134;61;20368;-53
2021/08/11 01:08:29;0.00;0.00;0.62;0.00;0.00;0.62;5.23;3.30;;;25.70;37.20;;;;;;2253749;61;20391;-48
2021/08/11 01:11:17;0.00;0.00;0.62;0.00;0.00;0.62;3.73;3.37;;;25.70;37.20;;;;;;2255950;61;20453;-52
2021/08/11 01:14:02;0.00;0.00;0.62;0.00;0.00;0.62;4.00;3.30;;;25.70;37.30;;;;;;2256177;61;20376;-55
2021/08/11 01:16:47;0.00;0.00;0.62;0.00;0.00;0.62;4.13;3.50;;;25.70;37.30;;;;;;2253824;61;20391;-53
2021/08/11 01:19:32;0.00;0.00;0.62;0.00;0.00;0.62;4.43;3.50;;;25.70;37.30;;;;;;2254492;61;20636;-52
2021/08/11 01:22:26;0.00;0.00;0.62;0.00;0.00;0.62;3.97;3.40;;;25.70;37.30;;;;;;2256821;61;20391;-53
2021/08/11 01:25:22;0.00;0.00;0.62;0.00;0.00;0.62;6.20;2.93;;;25.70;37.30;;;;;;2256241;61;20574;-53
2021/08/11 01:28:44;0.00;0.00;0.62;0.00;0.00;0.62;4.17;2.93;;;25.60;37.30;;;;;;2256824;61;20415;-55
2021/08/11 01:31:44;0.00;0.00;0.62;0.00;0.00;0.62;4.47;3.30;;;25.60;37.30;;;;;;2255920;61;20395;-52
2021/08/11 01:34:40;0.00;0.00;0.62;0.00;0.00;0.62;3.60;2.70;;;25.60;37.40;;;;;;2256928;61;20735;-53
2021/08/11 01:37:31;0.00;0.00;0.62;0.00;0.00;0.62;3.00;2.70;;;25.60;37.40;;;;;;2256815;61;20367;-52
2021/08/11 01:40:23;0.00;0.00;0.62;0.00;0.00;0.62;3.07;2.60;;;25.50;37.30;;;;;;2256129;61;20459;-50
2021/08/11 01:43:08;0.00;0.00;0.62;0.00;0.00;0.62;3.03;2.63;;;25.60;37.30;;;;;;2256755;61;20747;-49
2021/08/11 01:45:57;0.00;0.00;0.62;0.00;0.00;0.62;4.30;2.90;;;25.60;37.30;;;;;;2256420;61;20426;-48
2021/08/11 01:48:43;0.00;0.00;0.62;0.00;0.00;0.62;3.73;3.23;;;25.50;38.00;;;;;;2256738;61;20359;-49
2021/08/11 01:51:29;0.00;0.00;0.62;0.00;0.00;0.62;3.57;3.13;;;25.50;37.30;;;;;;2256837;61;20701;-51
2021/08/11 01:54:15;0.00;0.00;0.62;0.00;0.00;0.62;4.00;3.30;;;25.50;37.30;;;;;;2253847;61;20362;-49
2021/08/11 01:57:01;0.00;0.00;0.62;0.00;0.00;0.62;4.07;3.10;;;25.50;37.20;;;;;;2256813;61;20368;-49
2021/08/11 01:59:47;0.00;0.00;0.62;0.00;0.00;0.62;3.00;2.70;;;25.50;37.20;;;;;;2256622;61;20399;-52
2021/08/11 02:02:35;0.00;0.00;0.62;0.00;0.00;0.62;3.17;2.87;;;25.50;37.20;;;;;;2256140;61;20585;-50
2021/08/11 02:05:23;0.00;0.00;0.62;0.00;0.00;0.62;4.50;3.30;;;25.50;37.20;;;;;;2254290;61;20397;-51
2021/08/11 02:08:09;0.00;0.00;0.62;0.00;0.00;0.62;2.90;2.50;;;25.50;37.30;;;;;;2254078;61;20368;-53
2021/08/11 02:11:00;0.00;0.00;0.62;0.00;0.00;0.62;3.80;3.00;;;25.40;37.20;;;;;;2256818;61;20511;-49
2021/08/11 02:13:47;0.00;0.00;0.62;0.00;0.00;0.62;3.83;3.23;;;25.40;37.20;;;;;;2253937;61;20410;-50
2021/08/11 02:16:32;0.00;0.00;0.62;0.00;0.00;0.62;6.20;3.27;;;25.40;37.20;;;;;;2256123;61;20395;-50
2021/08/11 02:19:18;0.00;0.00;0.62;0.00;0.00;0.62;5.60;2.63;;;25.40;37.30;;;;;;2256668;61;20391;-51
2021/08/11 02:22:03;0.00;0.00;0.62;0.00;0.00;0.62;3.93;2.90;;;25.40;37.30;;;;;;2256635;61;20633;-49
2021/08/11 02:24:50;0.00;0.00;0.62;0.00;0.00;0.62;3.50;2.90;;;25.40;37.30;;;;;;2256063;61;20499;-54
2021/08/11 02:27:42;0.00;0.00;0.62;0.00;0.00;0.62;3.27;2.90;;;25.40;37.30;;;;;;2256478;61;20724;-51
2021/08/11 02:30:34;0.00;0.00;0.62;0.00;0.00;0.62;3.50;2.80;;;25.40;37.40;;;;;;2256279;61;20372;-47
2021/08/11 02:33:25;0.00;0.00;0.62;0.00;0.00;0.62;3.20;2.90;;;25.40;37.40;;;;;;2254350;61;20615;-50
2021/08/11 02:36:20;0.00;0.00;0.62;0.00;0.00;0.62;4.00;3.00;;;25.40;37.40;;;;;;2256655;61;20433;-50
2021/08/11 02:39:11;0.00;0.00;0.62;0.00;0.00;0.62;2.63;2.20;;;25.40;37.40;;;;;;2255957;61;20720;-49
2021/08/11 02:42:04;0.00;0.00;0.62;0.00;0.00;0.62;3.50;2.57;;;25.50;37.50;;;;;;2256501;61;20438;-52
2021/08/11 02:44:55;0.00;0.00;0.62;0.00;0.00;0.62;3.63;2.60;;;25.50;37.50;;;;;;2256262;61;20712;-49
2021/08/11 02:47:41;0.00;0.00;0.62;0.00;0.00;0.62;4.03;2.73;;;25.40;37.40;;;;;;2256351;61;20395;-50
2021/08/11 02:50:27;0.00;0.00;0.62;0.00;0.00;0.62;2.73;2.50;;;25.40;37.40;;;;;;2256583;61;20375;-49
2021/08/11 02:53:16;0.00;0.00;0.62;0.00;0.00;0.62;2.60;2.40;;;25.40;37.40;;;;;;2256047;61;20668;-50
2021/08/11 02:56:02;0.00;0.00;0.62;0.00;0.00;0.62;3.30;3.00;;;25.40;37.40;;;;;;2256613;61;20382;-50
2021/08/11 02:58:49;0.00;0.00;0.62;0.00;0.00;0.62;3.00;2.67;;;25.40;37.40;;;;;;2256535;61;20368;-50
2021/08/11 03:01:35;0.00;0.00;0.62;0.00;0.00;0.62;3.60;2.47;;;25.40;37.30;;;;;;2255990;61;20414;-49
2021/08/11 03:04:20;0.00;0.00;0.62;0.00;0.00;0.62;4.53;3.03;;;25.40;38.00;;;;;;2256539;61;20404;-49
2021/08/11 03:07:05;0.00;0.00;0.62;0.00;0.00;0.62;2.97;2.60;;;25.40;37.30;;;;;;2256151;61;20648;-52
2021/08/11 03:09:52;0.00;0.00;0.62;0.00;0.00;0.62;4.47;2.70;;;25.40;37.30;;;;;;2256138;61;20368;-51
2021/08/11 03:12:37;0.00;0.00;0.62;0.00;0.00;0.62;3.37;2.77;;;25.40;37.30;;;;;;2254172;61;20355;-49
2021/08/11 03:15:27;0.00;0.00;0.62;0.00;0.00;0.62;3.50;2.80;;;25.40;37.20;;;;;;2255844;61;20632;-48
2021/08/11 03:18:16;0.00;0.00;0.62;0.00;0.00;0.62;3.47;3.17;;;25.40;37.20;;;;;;2253907;61;20372;-50
2021/08/11 03:21:00;0.00;0.00;0.62;0.00;0.00;0.62;3.57;2.90;;;25.40;37.20;;;;;;2256362;61;20619;-52
2021/08/11 03:23:46;0.00;0.00;0.62;0.00;0.00;0.62;3.60;2.83;;;25.40;37.20;;;;;;2255577;61;20363;-48
2021/08/11 03:26:31;0.00;0.00;0.62;0.00;0.00;0.62;3.07;2.77;;;25.40;37.20;;;;;;2256066;61;20403;-52
2021/08/11 03:29:16;0.00;0.00;0.62;0.00;0.00;0.62;6.10;3.17;;;25.40;37.20;;;;;;2255826;61;20363;-49
2021/08/11 03:32:06;0.00;0.00;0.62;0.00;0.00;0.62;5.00;3.20;;;25.40;37.20;;;;;;2255910;61;20402;-52
2021/08/11 03:34:51;0.00;0.00;0.62;0.00;0.00;0.62;4.00;2.70;;;25.30;37.10;;;;;;2256181;61;20372;-49
2021/08/11 03:37:35;0.00;0.00;0.62;0.00;0.00;0.62;2.97;2.67;;;25.30;37.10;;;;;;2255546;61;20364;-50
2021/08/11 03:40:23;0.00;0.00;0.62;0.00;0.00;0.62;3.20;2.67;;;25.30;37.10;;;;;;2253374;61;20435;-50
2021/08/11 03:43:08;0.00;0.00;0.62;0.00;0.00;0.62;3.20;2.90;;;25.20;37.00;;;;;;2253704;61;20416;-49
2021/08/11 03:45:52;0.00;0.00;0.62;0.00;0.00;0.62;4.40;2.87;;;25.30;37.10;;;;;;2255464;61;20819;-51
2021/08/11 03:48:38;0.00;0.00;0.62;0.00;0.00;0.62;2.60;2.37;;;25.20;37.10;;;;;;2256038;61;20402;-49
2021/08/11 03:51:24;0.00;0.00;0.62;0.00;0.00;0.62;4.90;2.97;;;25.20;37.10;;;;;;2255812;61;20439;-50
2021/08/11 03:54:08;0.00;0.00;0.62;0.00;0.00;0.62;4.33;2.63;;;25.20;37.20;;;;;;2255912;61;20415;-50
2021/08/11 03:56:53;0.00;0.00;0.62;0.00;0.00;0.62;3.87;3.37;;;25.20;37.30;;;;;;2256124;61;20360;-52
2021/08/11 03:59:37;0.00;0.00;0.62;0.00;0.00;0.62;3.50;2.73;;;25.20;37.90;;;;;;2253001;61;20395;-49
2021/08/11 04:02:22;0.00;0.00;0.62;0.00;0.00;0.62;3.40;3.03;;;25.20;37.30;;;;;;2253271;61;20672;-53
2021/08/11 04:05:09;0.00;0.00;0.62;0.00;0.00;0.62;3.50;3.20;;;25.20;37.30;;;;;;2253596;61;20601;-54
2021/08/11 04:07:54;0.00;0.00;0.62;0.00;0.00;0.62;3.10;2.80;;;25.20;37.20;;;;;;2253044;61;20418;-51
2021/08/11 04:10:38;0.00;0.00;0.62;0.00;0.00;0.62;3.73;3.13;;;25.20;37.20;;;;;;2253535;61;20384;-53
2021/08/11 04:13:23;0.00;0.00;0.62;0.00;0.00;0.62;3.50;2.90;;;25.20;37.20;;;;;;2253780;61;20359;-51
2021/08/11 04:16:07;0.00;0.00;0.62;0.00;0.00;0.62;3.67;3.23;;;25.20;37.20;;;;;;2253506;61;20584;-51
2021/08/11 04:18:52;0.00;0.00;0.62;0.00;0.00;0.62;6.70;3.03;;;25.10;37.10;;;;;;2253641;61;20364;-53
2021/08/11 04:21:38;0.00;0.00;0.62;0.00;0.00;0.62;3.87;3.10;;;25.10;37.10;;;;;;2253351;61;20467;-54
2021/08/11 04:24:23;0.00;0.00;0.62;0.00;0.00;0.62;4.80;3.90;;;25.10;37.10;;;;;;2253963;61;20395;-52
2021/08/11 04:27:07;0.00;0.00;0.62;0.00;0.00;0.62;4.00;3.10;;;25.10;37.10;;;;;;2253793;61;20384;-51
2021/08/11 04:29:52;0.00;0.00;0.62;0.00;0.00;0.62;3.50;3.20;;;25.10;37.10;;;;;;2253396;61;20437;-51
2021/08/11 04:32:36;0.00;0.00;0.62;0.00;0.00;0.62;5.00;3.23;;;25.10;37.10;;;;;;2253941;61;20364;-50
2021/08/11 04:35:21;0.00;0.00;0.62;0.00;0.00;0.62;3.90;3.50;;;25.10;37.10;;;;;;2253886;61;20476;-54
2021/08/11 04:38:07;0.00;0.00;0.62;0.00;0.00;0.62;3.90;3.10;;;25.10;37.10;;;;;;2253501;61;20364;-51
2021/08/11 04:40:52;0.00;0.00;0.62;0.00;0.00;0.62;3.30;2.90;;;25.10;37.10;;;;;;2253673;61;20495;-49
2021/08/11 04:43:36;0.00;0.00;0.62;0.00;0.00;0.62;3.77;3.23;;;25.10;37.10;;;;;;2253524;61;20375;-52
2021/08/11 04:46:20;0.00;0.00;0.62;0.00;0.00;0.62;5.37;3.77;;;25.10;37.10;;;;;;2253835;61;20632;-49
2021/08/11 04:49:05;0.00;0.00;0.62;0.00;0.00;0.62;4.40;3.40;;;25.10;37.10;;;;;;2253685;61;20367;-51
2021/08/11 04:51:49;0.00;0.00;0.62;0.00;0.00;0.62;4.30;3.57;;;25.10;37.10;;;;;;2253217;61;20376;-49
2021/08/11 04:54:35;0.00;0.00;0.62;0.00;0.00;0.62;6.13;3.70;;;25.10;37.10;;;;;;2253886;61;20368;-51
2021/08/11 04:57:20;0.00;0.00;0.62;0.00;0.00;0.62;8.30;4.53;;;25.10;37.10;;;;;;2253831;61;20364;-50
2021/08/11 05:00:06;0.00;0.00;0.62;0.00;0.00;0.62;8.43;5.37;;;25.00;37.10;;;;;;2253232;61;20596;-49
2021/08/11 05:02:51;0.00;0.00;0.62;0.00;0.00;0.62;6.87;4.73;;;25.00;37.10;;;;;;2253748;61;20431;-55
2021/08/11 05:05:36;0.00;0.00;0.62;0.00;0.00;0.62;6.30;4.83;;;25.00;37.20;;;;;;2253435;61;20396;-55
2021/08/11 05:08:21;0.00;0.00;0.62;0.00;0.00;0.62;9.23;7.07;;;25.00;37.20;;;;;;2253550;61;20363;-53
2021/08/11 05:11:07;0.00;0.00;0.62;0.00;0.00;0.62;9.40;6.43;;;25.00;37.20;;;;;;2253693;61;20404;-50
2021/08/11 05:13:52;0.00;0.00;0.62;0.00;0.00;0.62;9.33;5.97;;;25.00;37.30;;;;;;2253238;61;20713;-56
2021/08/11 05:16:36;0.00;0.00;0.62;0.00;0.00;0.62;7.53;5.50;;;24.90;37.30;;;;;;2253826;61;20766;-55
2021/08/11 05:19:21;0.00;0.00;0.62;0.00;0.00;0.62;8.53;5.80;;;24.90;37.30;;;;;;2253692;61;20723;-55
2021/08/11 05:22:05;0.00;0.00;0.62;0.00;0.00;0.62;9.33;5.47;;;24.90;37.40;;;;;;2253206;61;20399;-55
2021/08/11 05:24:51;0.00;0.00;0.62;0.00;0.00;0.62;8.50;5.53;;;24.90;37.50;;;;;;2253187;61;20431;-53
2021/08/11 05:27:37;0.00;0.00;0.62;0.00;0.00;0.62;9.13;5.70;;;24.90;37.60;;;;;;2253453;61;20419;-52
2021/08/11 05:30:21;0.00;0.00;0.62;0.00;0.00;0.62;8.50;5.33;;;24.90;37.70;;;;;;2253301;61;20394;-54
2021/08/11 05:33:06;0.00;0.00;0.62;0.00;0.00;0.62;10.30;5.63;;;24.90;37.60;;;;;;2253726;61;20422;-55
2021/08/11 05:35:51;0.00;0.00;0.62;0.00;0.00;0.62;6.40;5.27;;;25.00;37.70;;;;;;2253188;61;20383;-51
2021/08/11 05:38:38;0.00;0.00;0.62;0.00;0.00;0.62;5.77;4.77;;;25.00;37.70;;;;;;2253603;61;20452;-53
2021/08/11 05:41:22;0.00;0.00;0.62;0.00;0.00;0.62;5.70;5.10;;;25.00;37.70;;;;;;2253703;61;20743;-50
2021/08/11 05:44:09;0.00;0.00;0.62;0.00;0.00;0.62;7.57;5.17;;;25.00;37.70;;;;;;2253179;61;20363;-51
2021/08/11 05:46:53;0.00;0.00;0.62;0.00;0.00;0.62;7.57;4.70;;;25.00;37.70;;;;;;2253606;61;20732;-50
2021/08/11 05:49:38;0.00;0.00;0.62;0.00;0.00;0.62;7.60;5.07;;;25.10;37.70;;;;;;2253554;61;20368;-50
2021/08/11 05:52:22;0.00;0.00;0.62;0.00;0.00;0.62;7.10;4.83;;;25.10;37.70;;;;;;2253452;61;20387;-51
2021/08/11 05:55:08;0.00;0.00;0.62;0.00;0.00;0.62;6.43;5.57;;;25.10;37.70;;;;;;2253484;61;20743;-60
2021/08/11 05:57:52;0.00;0.00;0.62;0.00;0.00;0.62;7.03;4.67;;;25.10;37.70;;;;;;2252913;61;20423;-51
2021/08/11 06:00:39;0.00;0.00;0.62;0.00;0.00;0.62;8.73;5.03;;;25.10;37.80;;;;;;2253303;61;20384;-50
2021/08/11 06:03:24;0.00;0.00;0.62;0.00;0.00;0.62;6.43;4.90;;;25.20;37.80;;;;;;2253791;61;20860;-54
2021/08/11 06:06:18;0.00;0.00;0.62;0.00;0.00;0.62;5.17;4.10;;;25.20;37.80;;;;;;2252920;61;20360;-51
2021/08/11 06:09:03;0.00;0.00;0.62;0.00;0.00;0.62;6.97;4.93;;;25.20;37.80;;;;;;2253827;61;20585;-53
2021/08/11 06:11:47;0.00;0.00;0.62;0.00;0.00;0.62;6.70;5.00;;;25.20;37.80;;;;;;2253972;61;20396;-53
2021/08/11 06:14:31;0.00;0.00;0.62;0.00;0.00;0.62;6.60;4.67;;;25.20;37.80;;;;;;2253652;61;20360;-53
2021/08/11 06:17:17;0.00;0.00;0.62;0.00;0.00;0.62;8.60;5.17;;;25.30;37.90;;;;;;2254028;61;20732;-51
2021/08/11 06:20:02;0.00;0.00;0.62;0.00;0.00;0.62;6.93;5.00;;;25.30;37.90;;;;;;2255762;61;20487;-53
2021/08/11 06:22:47;0.00;0.00;0.62;0.00;0.00;0.62;6.10;4.57;;;25.30;37.90;;;;;;2253902;61;20392;-52
2021/08/11 06:25:32;0.00;0.00;0.62;0.00;0.00;0.62;6.77;4.17;;;25.30;38.00;;;;;;2253874;61;20399;-54
2021/08/11 06:28:17;0.00;0.00;0.62;0.00;0.00;0.62;6.10;4.90;;;25.40;38.00;;;;;;2253390;61;20403;-51
2021/08/11 06:31:01;0.00;0.00;0.62;0.00;0.00;0.62;5.60;4.93;;;25.40;38.10;;;;;;2253884;61;20460;-54
2021/08/11 06:33:47;0.00;0.00;0.62;0.00;0.00;0.62;5.57;4.47;;;25.40;38.00;;;;;;2254012;61;20356;-56
2021/08/11 06:36:32;0.00;0.00;0.62;0.00;0.00;0.62;4.10;3.50;;;25.40;38.00;;;;;;2253600;61;20367;-54
2021/08/11 06:39:17;0.00;0.00;0.62;0.00;0.00;0.62;4.97;4.30;;;25.40;38.00;;;;;;2253739;61;20404;-54
2021/08/11 06:42:02;0.00;0.00;0.62;0.00;0.00;0.62;5.13;4.43;;;25.50;38.20;;;;;;2253590;61;20431;-51
2021/08/11 06:45:02;0.00;0.00;0.62;0.00;0.00;0.62;7.10;4.20;;;25.50;38.10;;;;;;2256196;61;20783;-56
2021/08/11 06:47:47;0.00;0.00;0.62;0.00;0.00;0.62;7.83;4.27;;;25.50;38.10;;;;;;2256117;61;20363;-53
2021/08/11 06:50:34;0.00;0.00;0.62;0.00;0.00;0.62;5.53;4.33;;;25.50;38.20;;;;;;2255429;61;20766;-53
2021/08/11 06:53:19;0.00;0.00;0.62;0.00;0.00;0.62;7.90;5.27;;;25.50;38.20;;;;;;2253865;61;20472;-53
2021/08/11 06:56:04;0.00;0.00;0.62;0.00;0.00;0.62;5.23;4.73;;;25.50;38.20;;;;;;2253910;61;20363;-55
2021/08/11 06:58:49;0.00;0.00;0.62;0.00;0.00;0.62;5.40;4.20;;;25.60;38.20;;;;;;2253472;61;20391;-50
2021/08/11 07:01:33;0.00;0.00;0.62;0.00;0.00;0.62;4.47;4.07;;;25.60;38.20;;;;;;2253877;61;20419;-49
2021/08/11 07:04:18;0.00;0.00;0.62;0.00;0.00;0.62;4.67;4.13;;;25.60;38.20;;;;;;2253488;61;20364;-54
2021/08/11 07:07:04;0.00;0.00;0.62;0.00;0.00;0.62;5.37;4.73;;;25.60;38.20;;;;;;2253830;61;20376;-54
2021/08/11 07:09:49;0.00;0.00;0.62;0.00;0.00;0.62;5.40;4.70;;;25.60;38.30;;;;;;2253740;61;20368;-51
2021/08/11 07:12:34;0.00;0.00;0.62;0.00;0.00;0.62;6.23;4.27;;;25.70;38.40;;;;;;2253173;61;20387;-52
2021/08/11 07:15:18;0.00;0.00;0.62;0.00;0.00;0.62;4.60;4.20;;;25.70;38.40;;;;;;2253830;61;20367;-51
2021/08/11 07:18:03;0.00;0.00;0.62;0.00;0.00;0.62;5.03;4.33;;;25.70;38.40;;;;;;2253803;61;20362;-54
2021/08/11 07:20:48;0.00;0.00;0.62;0.00;0.00;0.62;6.60;4.27;;;25.70;38.40;;;;;;2253251;61;20391;-52
2021/08/11 07:23:34;0.00;0.00;0.62;0.00;0.00;0.62;6.13;4.87;;;25.70;38.30;;;;;;2253703;61;20388;-53
2021/08/11 07:26:19;0.00;0.00;0.62;0.00;0.00;0.62;4.90;4.40;;;25.80;38.40;;;;;;2253399;61;20431;-50
2021/08/11 07:29:04;0.00;0.00;0.62;0.00;0.00;0.62;7.03;5.30;;;25.80;38.40;;;;;;2253668;61;20403;-52
2021/08/11 07:31:49;0.00;0.00;0.62;0.00;0.00;0.62;5.47;4.97;;;25.80;38.40;;;;;;2253704;61;20372;-53
2021/08/11 07:34:34;0.00;0.00;0.62;0.00;0.00;0.62;5.10;4.60;;;25.80;38.40;;;;;;2253262;61;20363;-53
2021/08/11 07:37:18;0.00;0.00;0.62;0.00;0.00;0.62;5.17;4.70;;;25.80;38.40;;;;;;2253766;61;20400;-53
2021/08/11 07:40:06;0.00;0.00;0.62;0.00;0.00;0.62;4.73;4.10;;;25.80;38.40;;;;;;2253564;61;20442;-55
2021/08/11 07:42:51;0.00;0.00;0.62;0.00;0.00;0.62;7.57;4.57;;;25.80;38.40;;;;;;2253225;61;20452;-53
2021/08/11 07:45:36;0.00;0.00;0.62;0.00;0.00;0.62;5.10;4.60;;;25.90;38.50;;;;;;2256087;61;20828;-53
2021/08/11 07:48:20;0.00;0.00;0.62;0.00;0.00;0.62;4.87;4.20;;;25.90;38.50;;;;;;2253461;61;20411;-55
2021/08/11 07:51:05;0.00;0.00;0.62;0.00;0.00;0.62;6.70;3.90;;;26.00;38.60;;;;;;2255754;61;20435;-51
2021/08/11 07:53:49;0.00;0.00;0.62;0.00;0.00;0.62;5.77;4.03;;;26.00;38.60;;;;;;2253681;61;20356;-52
2021/08/11 07:56:35;0.00;0.00;0.62;0.00;0.00;0.62;6.10;5.00;;;26.00;38.60;;;;;;2253131;61;20364;-54
2021/08/11 07:59:20;0.00;0.00;0.62;0.00;0.00;0.62;8.50;4.33;;;26.00;38.60;;;;;;2253694;61;20367;-54
2021/08/11 08:02:08;0.00;0.00;0.62;0.00;0.00;0.62;4.53;4.10;;;26.00;38.50;;;;;;2253582;61;20391;-53
2021/08/11 08:04:53;0.00;0.00;0.62;0.00;0.00;0.62;5.93;4.57;;;26.10;38.60;;;;;;2252676;61;20363;-53
2021/08/11 08:07:38;0.00;0.00;0.62;0.00;0.00;0.62;5.60;4.37;;;26.10;38.50;;;;;;2253131;61;20399;-50
2021/08/11 08:10:22;0.00;0.00;0.62;0.00;0.00;0.62;5.50;4.47;;;26.10;38.50;;;;;;2253540;61;20378;-52
2021/08/11 08:13:08;0.00;0.00;0.62;0.00;0.00;0.62;5.10;4.60;;;26.10;38.50;;;;;;2253371;61;20363;-53
2021/08/11 08:15:53;0.00;0.00;0.62;0.00;0.00;0.62;5.73;5.13;;;26.20;38.60;;;;;;2253129;61;20375;-50
2021/08/11 08:18:38;0.00;0.00;0.62;0.00;0.00;0.62;6.70;5.47;;;26.20;38.50;;;;;;2253251;61;20636;-50
2021/08/11 08:21:22;0.00;0.00;0.62;0.00;0.00;0.62;5.70;5.20;;;26.20;38.50;;;;;;2253465;61;20447;-52
2021/08/11 08:24:07;0.00;0.00;0.62;0.00;0.00;0.62;6.30;4.77;;;26.20;38.50;;;;;;2253519;61;20391;-51
2021/08/11 08:26:51;0.00;0.00;0.62;0.00;0.00;0.62;5.80;5.27;;;26.20;38.40;;;;;;2253138;61;20815;-52
2021/08/11 08:29:38;0.00;0.00;0.62;0.00;0.00;0.62;7.27;5.37;;;26.20;38.40;;;;;;2253440;61;20384;-54
2021/08/11 08:32:22;0.00;0.00;0.62;0.00;0.00;0.62;6.43;5.03;;;26.20;38.40;;;;;;2253300;61;20367;-55
2021/08/11 08:35:07;0.00;0.00;0.62;0.00;0.00;0.62;5.57;4.30;;;26.30;39.20;;;;;;2251256;61;20368;-54
2021/08/11 08:37:52;0.00;0.00;0.62;0.00;0.00;0.62;6.70;4.73;;;26.30;38.50;;;;;;2253827;61;20583;-50
2021/08/11 08:40:39;0.00;0.00;0.62;0.00;0.00;0.62;5.67;5.17;;;26.30;38.50;;;;;;2253566;61;20384;-52
2021/08/11 08:43:23;0.00;0.00;0.62;0.00;0.00;0.62;5.80;5.03;;;26.30;38.50;;;;;;2253795;61;20407;-50
2021/08/11 08:46:10;0.00;0.00;0.62;0.00;0.00;0.62;8.17;6.57;;;26.30;38.40;;;;;;2253772;61;20360;-54
2021/08/11 08:48:57;0.00;0.00;0.62;0.00;0.00;0.62;5.07;4.60;;;26.30;38.40;;;;;;2253089;61;20371;-54
2021/08/11 08:51:46;0.00;0.00;0.62;0.00;0.00;0.62;5.90;5.40;;;26.30;38.30;;;;;;2253822;61;20426;-54
2021/08/11 08:54:34;0.00;0.00;0.62;0.00;0.00;0.62;5.80;5.20;;;26.30;38.20;;;;;;2253924;61;20443;-56
2021/08/11 08:57:19;0.00;0.00;0.62;0.00;0.00;0.62;5.87;5.37;;;26.30;38.30;;;;;;2253181;61;20368;-52
2021/08/11 09:00:05;0.00;0.00;0.62;0.00;0.00;0.62;6.80;5.10;;;26.30;38.30;;;;;;2253652;61;20407;-55
2021/08/11 09:02:51;0.00;0.00;0.62;0.00;0.00;0.62;5.77;5.23;;;26.40;38.40;;;;;;2253590;61;20388;-56
2021/08/11 09:05:36;0.00;0.00;0.62;0.00;0.00;0.62;5.60;5.10;;;26.30;38.30;;;;;;2253757;61;20371;-53
2021/08/11 09:08:20;0.00;0.00;0.62;0.00;0.00;0.62;7.80;7.07;;;26.30;38.30;;;;;;2253865;61;20367;-55
2021/08/11 09:11:15;0.00;0.00;0.62;0.00;0.00;0.62;6.10;5.50;;;26.40;38.40;;;;;;2253111;61;20383;-55
2021/08/11 09:14:20;0.00;0.00;0.62;0.00;0.00;0.62;7.07;6.20;;;26.40;38.40;;;;;;2253808;61;20403;-53
2021/08/11 09:17:05;0.00;0.00;0.62;0.00;0.00;0.62;6.60;5.97;;;26.40;38.30;;;;;;2253817;61;20480;-52
2021/08/11 09:19:51;0.00;0.00;0.62;0.00;0.00;0.62;6.73;5.67;;;26.40;38.30;;;;;;2253058;61;20391;-54
2021/08/11 09:22:45;0.00;0.00;0.62;0.00;0.00;0.62;6.20;5.60;;;26.40;38.30;;;;;;2253786;61;20512;-52
2021/08/11 09:25:29;0.00;0.00;0.62;0.00;0.00;0.62;7.03;6.43;;;26.40;38.20;;;;;;2253073;61;20638;-51
2021/08/11 09:28:17;0.00;0.00;0.62;0.00;0.00;0.62;6.87;5.63;;;26.50;38.30;;;;;;2253687;61;20403;-52
2021/08/11 09:31:20;0.00;0.00;0.62;0.00;0.00;0.62;7.90;5.87;;;26.50;38.30;;;;;;2253714;61;20383;-50
2021/08/11 09:34:07;0.00;0.00;0.62;0.00;0.00;0.62;5.87;5.27;;;26.50;38.30;;;;;;2253282;61;20359;-52
2021/08/11 09:36:56;0.00;0.00;0.62;0.00;0.00;0.62;5.33;4.80;;;26.50;38.20;;;;;;2253767;61;20727;-54
2021/08/11 09:39:41;0.00;0.00;0.62;0.00;0.00;0.62;7.17;6.43;;;26.50;38.20;;;;;;2254350;61;20367;-52
2021/08/11 09:42:29;0.00;0.00;0.62;0.00;0.00;0.62;6.63;5.73;;;26.50;38.20;;;;;;2254417;61;20484;-52
2021/08/11 09:45:16;0.00;0.00;0.62;0.00;0.00;0.62;8.60;7.10;;;26.50;38.20;;;;;;2254329;61;20399;-52
2021/08/11 09:48:03;0.00;0.00;0.62;0.00;0.00;0.62;7.13;6.30;;;26.50;38.00;;;;;;2253675;61;20402;-56
2021/08/11 09:50:51;0.00;0.00;0.62;0.00;0.00;0.62;9.37;8.47;;;26.60;38.00;;;;;;2254394;61;20379;-55
2021/08/11 09:53:38;0.00;0.00;0.62;0.00;0.00;0.62;8.80;7.50;;;26.60;38.00;;;;;;2254426;61;20573;-51
2021/08/11 09:56:32;0.00;0.00;0.62;0.00;0.00;0.62;8.60;7.17;;;26.60;37.70;;;;;;2253723;61;20480;-56
2021/08/11 09:59:17;0.00;0.00;0.62;0.00;0.00;0.62;8.30;6.40;;;26.60;37.50;;;;;;2254305;61;20371;-54
2021/08/11 10:02:16;0.00;0.00;0.62;0.00;0.00;0.62;6.77;6.17;;;26.60;37.40;;;;;;2254145;61;20463;-56
2021/08/11 10:05:00;0.00;0.00;0.62;0.00;0.00;0.62;6.50;5.90;;;26.60;37.50;;;;;;2256695;61;20776;-52
2021/08/11 10:07:53;0.00;0.00;0.62;0.00;0.00;0.62;6.77;5.90;;;26.60;37.50;;;;;;2254270;61;20479;-56
2021/08/11 10:10:49;0.00;0.00;0.62;0.00;0.00;0.62;7.73;6.93;;;26.60;37.60;;;;;;2255972;61;20415;-50
2021/08/11 10:13:40;0.00;0.00;0.62;0.00;0.00;0.62;6.27;5.10;;;26.60;37.60;;;;;;2254199;61;20455;-55
2021/08/11 10:16:25;0.00;0.00;0.62;0.00;0.00;0.62;7.17;6.43;;;26.70;37.60;;;;;;2253812;61;20644;-51
2021/08/11 10:19:11;0.00;0.00;0.62;0.00;0.00;0.62;7.27;5.90;;;26.70;37.60;;;;;;2253215;61;20411;-52
2021/08/11 10:21:59;0.00;0.00;0.62;0.00;0.00;0.62;6.27;5.40;;;26.70;37.50;;;;;;2253570;61;20436;-51
2021/08/11 10:24:45;0.00;0.00;0.62;0.00;0.00;0.62;8.33;5.87;;;26.70;37.50;;;;;;2255270;61;20363;-52
2021/08/11 10:27:33;0.00;0.00;0.62;0.00;0.00;0.62;6.07;5.47;;;26.80;37.50;;;;;;2253664;61;20440;-51
2021/08/11 10:30:18;0.00;0.00;0.62;0.00;0.00;0.62;6.20;5.60;;;26.80;37.40;;;;;;2253553;61;20392;-54
2021/08/11 10:33:03;0.00;0.00;0.62;0.00;0.00;0.62;6.30;5.03;;;26.80;37.40;;;;;;2253111;61;20368;-54
2021/08/11 10:35:49;0.00;0.00;0.62;0.00;0.00;0.62;8.23;7.43;;;26.80;37.40;;;;;;2253665;61;20411;-55
2021/08/11 10:38:36;0.00;0.00;0.62;0.00;0.00;0.62;6.20;5.60;;;26.90;37.40;;;;;;2253578;61;20403;-55
2021/08/11 10:41:27;0.00;0.00;0.62;0.00;0.00;0.62;7.93;6.10;;;26.90;37.30;;;;;;2253096;61;20387;-53
2021/08/11 10:44:19;0.00;0.00;0.62;0.00;0.00;0.62;6.57;5.97;;;26.90;37.00;;;;;;2253568;61;20460;-56
2021/08/11 10:47:06;0.00;0.00;0.62;0.00;0.00;0.62;6.40;5.80;;;26.90;36.80;;;;;;2252956;61;20816;-51
2021/08/11 10:49:54;0.00;0.00;0.62;0.00;0.00;0.62;7.00;5.90;;;26.90;36.60;;;;;;2253469;61;20407;-53
2021/08/11 10:52:38;0.00;0.00;0.62;0.00;0.00;0.62;5.80;5.30;;;26.90;36.30;;;;;;2256017;61;20403;-54
2021/08/11 10:55:40;0.00;0.00;0.62;0.00;0.00;0.62;6.63;5.63;;;26.90;36.00;;;;;;2253023;61;20396;-51
2021/08/11 10:58:43;0.00;0.00;0.62;0.00;0.00;0.62;7.00;5.13;;;26.90;36.00;;;;;;2253572;61;20390;-51